sensor_id;sensor_type;location;lat;lon;timestamp;temperature;humidity
49184;DHT22;35021;49.214;12.270;2023-11-21T00:00:02;22.70;38.40
49184;DHT22;35021;49.214;12.270;2023-11-21T00:02:30;22.70;38.50
49184;DHT22;35021;49.214;12.270;2023-11-21T00:04:57;22.70;38.40
49184;DHT22;35021;49.214;12.270;2023-11-21T00:07:24;22.70;38.50
49184;DHT22;35021;49.214;12.270;2023-11-21T00:09:51;22.70;38.50
49184;DHT22;35021;49.214;12.270;2023-11-21T00:12:18;22.70;38.50
49184;DHT22;35021;49.214;12.270;2023-11-21T00:14:45;22.70;38.50
49184;DHT22;35021;49.214;12.270;2023-11-21T00:17:12;22.70;38.50
49184;DHT22;35021;49.214;12.270;2023-11-21T00:19:39;22.70;38.50
49184;DHT22;35021;49.214;12.270;2023-11-21T00:22:06;22.70;38.50
49184;DHT22;35021;49.214;12.270;2023-11-21T00:24:34;22.70;38.40
49184;DHT22;35021;49.214;12.270;2023-11-21T00:27:01;22.70;38.50
49184;DHT22;35021;49.214;12.270;2023-11-21T00:29:28;22.80;38.50
49184;DHT22;35021;49.214;12.270;2023-11-21T00:31:55;22.80;38.60
49184;DHT22;35021;49.214;12.270;2023-11-21T00:34:22;22.80;38.60
49184;DHT22;35021;49.214;12.270;2023-11-21T00:36:49;22.80;38.60
49184;DHT22;35021;49.214;12.270;2023-11-21T00:39:16;22.80;38.60
49184;DHT22;35021;49.214;12.270;2023-11-21T00:41:43;22.70;38.50
49184;DHT22;35021;49.214;12.270;2023-11-21T00:44:11;22.80;38.60
49184;DHT22;35021;49.214;12.270;2023-11-21T00:46:38;22.80;38.60
49184;DHT22;35021;49.214;12.270;2023-11-21T00:49:05;22.80;38.60
49184;DHT22;35021;49.214;12.270;2023-11-21T00:51:32;22.80;38.50
49184;DHT22;35021;49.214;12.270;2023-11-21T00:53:59;22.80;38.60
49184;DHT22;35021;49.214;12.270;2023-11-21T00:56:27;22.80;38.60
49184;DHT22;35021;49.214;12.270;2023-11-21T00:58:54;22.80;38.60
49184;DHT22;35021;49.214;12.270;2023-11-21T01:01:21;22.70;38.60
49184;DHT22;35021;49.214;12.270;2023-11-21T01:03:52;22.70;38.70
49184;DHT22;35021;49.214;12.270;2023-11-21T01:06:19;22.70;38.70
49184;DHT22;35021;49.214;12.270;2023-11-21T01:08:46;22.70;38.70
49184;DHT22;35021;49.214;12.270;2023-11-21T01:11:13;22.70;38.80
49184;DHT22;35021;49.214;12.270;2023-11-21T01:13:40;22.70;38.80
49184;DHT22;35021;49.214;12.270;2023-11-21T01:16:08;22.60;38.80
49184;DHT22;35021;49.214;12.270;2023-11-21T01:18:35;22.60;38.90
49184;DHT22;35021;49.214;12.270;2023-11-21T01:21:02;22.60;38.90
49184;DHT22;35021;49.214;12.270;2023-11-21T01:23:29;22.60;38.90
49184;DHT22;35021;49.214;12.270;2023-11-21T01:25:56;22.60;38.90
49184;DHT22;35021;49.214;12.270;2023-11-21T01:28:23;22.60;38.90
49184;DHT22;35021;49.214;12.270;2023-11-21T01:30:50;22.60;38.90
49184;DHT22;35021;49.214;12.270;2023-11-21T01:33:18;22.60;38.90
49184;DHT22;35021;49.214;12.270;2023-11-21T01:35:45;22.60;38.90
49184;DHT22;35021;49.214;12.270;2023-11-21T01:38:13;22.60;38.90
49184;DHT22;35021;49.214;12.270;2023-11-21T01:40:41;22.60;38.90
49184;DHT22;35021;49.214;12.270;2023-11-21T01:43:08;22.60;38.90
49184;DHT22;35021;49.214;12.270;2023-11-21T01:45:36;22.60;39.00
49184;DHT22;35021;49.214;12.270;2023-11-21T01:48:03;22.50;39.00
49184;DHT22;35021;49.214;12.270;2023-11-21T01:50:30;22.50;39.00
49184;DHT22;35021;49.214;12.270;2023-11-21T01:52:57;22.40;39.20
49184;DHT22;35021;49.214;12.270;2023-11-21T01:55:24;22.40;39.20
49184;DHT22;35021;49.214;12.270;2023-11-21T01:57:55;22.30;39.40
49184;DHT22;35021;49.214;12.270;2023-11-21T02:00:22;22.30;39.50
49184;DHT22;35021;49.214;12.270;2023-11-21T02:02:50;22.30;39.60
49184;DHT22;35021;49.214;12.270;2023-11-21T02:05:18;22.20;39.60
49184;DHT22;35021;49.214;12.270;2023-11-21T02:07:45;22.20;39.60
49184;DHT22;35021;49.214;12.270;2023-11-21T02:10:15;22.20;39.70
49184;DHT22;35021;49.214;12.270;2023-11-21T02:12:42;22.20;39.70
49184;DHT22;35021;49.214;12.270;2023-11-21T02:15:09;22.20;39.70
49184;DHT22;35021;49.214;12.270;2023-11-21T02:17:42;22.20;39.70
49184;DHT22;35021;49.214;12.270;2023-11-21T02:20:13;22.20;39.70
49184;DHT22;35021;49.214;12.270;2023-11-21T02:22:50;22.20;39.60
49184;DHT22;35021;49.214;12.270;2023-11-21T02:25:31;22.20;39.70
49184;DHT22;35021;49.214;12.270;2023-11-21T02:28:00;22.20;39.60
49184;DHT22;35021;49.214;12.270;2023-11-21T02:30:28;22.20;39.60
49184;DHT22;35021;49.214;12.270;2023-11-21T02:32:55;22.20;39.60
49184;DHT22;35021;49.214;12.270;2023-11-21T02:35:25;22.20;39.60
49184;DHT22;35021;49.214;12.270;2023-11-21T02:37:53;22.20;39.60
49184;DHT22;35021;49.214;12.270;2023-11-21T02:40:20;22.20;39.60
49184;DHT22;35021;49.214;12.270;2023-11-21T02:42:48;22.20;39.60
49184;DHT22;35021;49.214;12.270;2023-11-21T02:45:15;22.20;39.50
49184;DHT22;35021;49.214;12.270;2023-11-21T02:47:46;22.20;39.50
49184;DHT22;35021;49.214;12.270;2023-11-21T02:50:14;22.20;39.50
49184;DHT22;35021;49.214;12.270;2023-11-21T02:52:42;22.30;39.70
49184;DHT22;35021;49.214;12.270;2023-11-21T02:55:10;22.30;39.60
49184;DHT22;35021;49.214;12.270;2023-11-21T02:57:38;22.30;39.50
49184;DHT22;35021;49.214;12.270;2023-11-21T03:00:06;22.30;39.50
49184;DHT22;35021;49.214;12.270;2023-11-21T03:02:42;22.30;39.50
49184;DHT22;35021;49.214;12.270;2023-11-21T03:05:09;22.30;39.50
49184;DHT22;35021;49.214;12.270;2023-11-21T03:07:37;22.30;39.50
49184;DHT22;35021;49.214;12.270;2023-11-21T03:10:04;22.30;39.40
49184;DHT22;35021;49.214;12.270;2023-11-21T03:12:31;22.30;39.40
49184;DHT22;35021;49.214;12.270;2023-11-21T03:14:58;22.30;39.40
49184;DHT22;35021;49.214;12.270;2023-11-21T03:17:26;22.30;39.40
49184;DHT22;35021;49.214;12.270;2023-11-21T03:19:53;22.30;39.30
49184;DHT22;35021;49.214;12.270;2023-11-21T03:22:21;22.30;39.30
49184;DHT22;35021;49.214;12.270;2023-11-21T03:24:48;22.30;39.30
49184;DHT22;35021;49.214;12.270;2023-11-21T03:27:15;22.30;39.30
49184;DHT22;35021;49.214;12.270;2023-11-21T03:29:42;22.30;39.30
49184;DHT22;35021;49.214;12.270;2023-11-21T03:32:09;22.30;39.30
49184;DHT22;35021;49.214;12.270;2023-11-21T03:34:41;22.30;39.30
49184;DHT22;35021;49.214;12.270;2023-11-21T03:37:19;22.30;39.30
49184;DHT22;35021;49.214;12.270;2023-11-21T03:39:47;22.20;39.20
49184;DHT22;35021;49.214;12.270;2023-11-21T03:42:14;22.20;39.20
49184;DHT22;35021;49.214;12.270;2023-11-21T03:44:41;22.20;39.20
49184;DHT22;35021;49.214;12.270;2023-11-21T03:47:08;22.20;39.20
49184;DHT22;35021;49.214;12.270;2023-11-21T03:49:35;22.20;39.10
49184;DHT22;35021;49.214;12.270;2023-11-21T03:52:02;22.20;39.10
49184;DHT22;35021;49.214;12.270;2023-11-21T03:54:29;22.20;39.00
49184;DHT22;35021;49.214;12.270;2023-11-21T03:56:56;22.30;38.90
49184;DHT22;35021;49.214;12.270;2023-11-21T03:59:23;22.40;38.80
49184;DHT22;35021;49.214;12.270;2023-11-21T04:01:51;22.40;38.70
49184;DHT22;35021;49.214;12.270;2023-11-21T04:04:18;22.50;38.50
49184;DHT22;35021;49.214;12.270;2023-11-21T04:06:45;22.60;38.40
49184;DHT22;35021;49.214;12.270;2023-11-21T04:09:12;22.70;38.30
49184;DHT22;35021;49.214;12.270;2023-11-21T04:11:39;22.80;38.10
49184;DHT22;35021;49.214;12.270;2023-11-21T04:14:06;22.80;38.00
49184;DHT22;35021;49.214;12.270;2023-11-21T04:16:33;22.80;37.90
49184;DHT22;35021;49.214;12.270;2023-11-21T04:19:00;22.80;38.00
49184;DHT22;35021;49.214;12.270;2023-11-21T04:21:27;22.80;38.00
49184;DHT22;35021;49.214;12.270;2023-11-21T04:23:54;22.70;38.10
49184;DHT22;35021;49.214;12.270;2023-11-21T04:26:21;22.60;38.30
49184;DHT22;35021;49.214;12.270;2023-11-21T04:28:48;22.50;38.50
49184;DHT22;35021;49.214;12.270;2023-11-21T04:31:15;22.40;38.60
49184;DHT22;35021;49.214;12.270;2023-11-21T04:33:42;22.50;38.80
49184;DHT22;35021;49.214;12.270;2023-11-21T04:36:09;22.40;38.90
49184;DHT22;35021;49.214;12.270;2023-11-21T04:38:37;22.30;38.90
49184;DHT22;35021;49.214;12.270;2023-11-21T04:41:04;22.30;38.90
49184;DHT22;35021;49.214;12.270;2023-11-21T04:43:31;22.40;38.90
49184;DHT22;35021;49.214;12.270;2023-11-21T04:45:58;22.40;38.80
49184;DHT22;35021;49.214;12.270;2023-11-21T04:48:25;22.50;38.80
49184;DHT22;35021;49.214;12.270;2023-11-21T04:50:52;22.50;38.70
49184;DHT22;35021;49.214;12.270;2023-11-21T04:53:19;22.60;38.60
49184;DHT22;35021;49.214;12.270;2023-11-21T04:55:46;22.60;38.50
49184;DHT22;35021;49.214;12.270;2023-11-21T04:58:15;22.70;38.50
49184;DHT22;35021;49.214;12.270;2023-11-21T05:00:42;22.70;38.40
49184;DHT22;35021;49.214;12.270;2023-11-21T05:03:09;22.70;38.40
49184;DHT22;35021;49.214;12.270;2023-11-21T05:05:37;22.60;38.40
49184;DHT22;35021;49.214;12.270;2023-11-21T05:08:04;22.60;38.50
49184;DHT22;35021;49.214;12.270;2023-11-21T05:10:31;22.60;38.60
49184;DHT22;35021;49.214;12.270;2023-11-21T05:12:58;22.50;38.60
49184;DHT22;35021;49.214;12.270;2023-11-21T05:15:25;22.40;38.70
49184;DHT22;35021;49.214;12.270;2023-11-21T05:17:54;22.40;38.80
49184;DHT22;35021;49.214;12.270;2023-11-21T05:20:22;22.40;38.80
49184;DHT22;35021;49.214;12.270;2023-11-21T05:22:50;22.40;38.90
49184;DHT22;35021;49.214;12.270;2023-11-21T05:25:17;22.40;39.70
49184;DHT22;35021;49.214;12.270;2023-11-21T05:27:47;22.40;38.90
49184;DHT22;35021;49.214;12.270;2023-11-21T05:30:14;22.40;38.90
49184;DHT22;35021;49.214;12.270;2023-11-21T05:32:41;22.40;38.90
49184;DHT22;35021;49.214;12.270;2023-11-21T05:35:11;22.50;38.80
49184;DHT22;35021;49.214;12.270;2023-11-21T05:37:45;22.50;38.70
49184;DHT22;35021;49.214;12.270;2023-11-21T05:40:12;22.60;38.70
49184;DHT22;35021;49.214;12.270;2023-11-21T05:42:40;22.60;38.60
49184;DHT22;35021;49.214;12.270;2023-11-21T05:45:07;22.60;38.50
49184;DHT22;35021;49.214;12.270;2023-11-21T05:47:39;22.70;38.50
49184;DHT22;35021;49.214;12.270;2023-11-21T05:50:08;22.70;38.50
49184;DHT22;35021;49.214;12.270;2023-11-21T05:52:39;22.60;38.50
49184;DHT22;35021;49.214;12.270;2023-11-21T05:55:07;22.60;38.60
49184;DHT22;35021;49.214;12.270;2023-11-21T05:57:34;22.50;38.60
49184;DHT22;35021;49.214;12.270;2023-11-21T06:02:38;22.40;38.70
49184;DHT22;35021;49.214;12.270;2023-11-21T06:05:09;22.40;38.70
49184;DHT22;35021;49.214;12.270;2023-11-21T06:07:36;22.40;38.70
49184;DHT22;35021;49.214;12.270;2023-11-21T06:10:04;22.50;38.80
49184;DHT22;35021;49.214;12.270;2023-11-21T06:12:34;22.50;38.70
49184;DHT22;35021;49.214;12.270;2023-11-21T06:15:03;22.50;38.60
49184;DHT22;35021;49.214;12.270;2023-11-21T06:17:32;22.60;38.50
49184;DHT22;35021;49.214;12.270;2023-11-21T06:19:59;22.60;38.40
49184;DHT22;35021;49.214;12.270;2023-11-21T06:22:28;22.70;38.30
49184;DHT22;35021;49.214;12.270;2023-11-21T06:24:57;22.80;38.30
49184;DHT22;35021;49.214;12.270;2023-11-21T06:27:24;22.80;38.10
49184;DHT22;35021;49.214;12.270;2023-11-21T06:29:51;22.90;38.00
49184;DHT22;35021;49.214;12.270;2023-11-21T06:32:18;22.90;37.90
49184;DHT22;35021;49.214;12.270;2023-11-21T06:34:48;22.90;37.90
49184;DHT22;35021;49.214;12.270;2023-11-21T06:37:16;22.90;37.90
49184;DHT22;35021;49.214;12.270;2023-11-21T06:39:43;22.90;37.90
49184;DHT22;35021;49.214;12.270;2023-11-21T06:42:10;22.90;37.90
49184;DHT22;35021;49.214;12.270;2023-11-21T06:44:37;22.90;38.00
49184;DHT22;35021;49.214;12.270;2023-11-21T06:47:04;22.80;38.00
49184;DHT22;35021;49.214;12.270;2023-11-21T06:49:32;22.80;38.10
49184;DHT22;35021;49.214;12.270;2023-11-21T06:51:59;22.80;38.20
49184;DHT22;35021;49.214;12.270;2023-11-21T06:54:26;22.80;38.30
49184;DHT22;35021;49.214;12.270;2023-11-21T06:56:53;22.80;38.20
49184;DHT22;35021;49.214;12.270;2023-11-21T06:59:20;22.80;38.20
49184;DHT22;35021;49.214;12.270;2023-11-21T07:01:47;22.80;38.10
49184;DHT22;35021;49.214;12.270;2023-11-21T07:04:14;22.80;38.00
49184;DHT22;35021;49.214;12.270;2023-11-21T07:06:41;22.90;38.00
49184;DHT22;35021;49.214;12.270;2023-11-21T07:09:10;22.90;37.80
49184;DHT22;35021;49.214;12.270;2023-11-21T07:11:38;23.00;37.80
49184;DHT22;35021;49.214;12.270;2023-11-21T07:14:09;23.00;37.70
49184;DHT22;35021;49.214;12.270;2023-11-21T07:16:36;23.10;37.70
49184;DHT22;35021;49.214;12.270;2023-11-21T07:19:04;23.10;37.70
49184;DHT22;35021;49.214;12.270;2023-11-21T07:21:33;23.10;37.70
49184;DHT22;35021;49.214;12.270;2023-11-21T07:24:00;23.10;37.80
49184;DHT22;35021;49.214;12.270;2023-11-21T07:26:30;23.00;38.50
49184;DHT22;35021;49.214;12.270;2023-11-21T07:28:57;23.00;37.90
49184;DHT22;35021;49.214;12.270;2023-11-21T07:31:24;22.90;37.90
49184;DHT22;35021;49.214;12.270;2023-11-21T07:33:51;22.90;38.00
49184;DHT22;35021;49.214;12.270;2023-11-21T07:36:19;22.90;38.10
49184;DHT22;35021;49.214;12.270;2023-11-21T07:38:47;22.80;38.10
49184;DHT22;35021;49.214;12.270;2023-11-21T07:41:15;22.80;38.20
49184;DHT22;35021;49.214;12.270;2023-11-21T07:43:56;22.80;38.60
49184;DHT22;35021;49.214;12.270;2023-11-21T07:46:24;22.80;38.20
49184;DHT22;35021;49.214;12.270;2023-11-21T07:48:53;22.80;38.20
49184;DHT22;35021;49.214;12.270;2023-11-21T07:51:20;22.80;38.10
49184;DHT22;35021;49.214;12.270;2023-11-21T07:53:47;22.80;38.10
49184;DHT22;35021;49.214;12.270;2023-11-21T07:56:14;22.90;38.00
49184;DHT22;35021;49.214;12.270;2023-11-21T07:58:41;22.90;38.10
49184;DHT22;35021;49.214;12.270;2023-11-21T08:01:08;22.90;38.10
49184;DHT22;35021;49.214;12.270;2023-11-21T08:03:35;22.90;38.00
49184;DHT22;35021;49.214;12.270;2023-11-21T08:06:02;22.90;38.00
49184;DHT22;35021;49.214;12.270;2023-11-21T08:08:32;22.90;38.00
49184;DHT22;35021;49.214;12.270;2023-11-21T08:10:59;22.90;38.10
49184;DHT22;35021;49.214;12.270;2023-11-21T08:13:29;22.90;38.10
49184;DHT22;35021;49.214;12.270;2023-11-21T08:15:58;22.80;38.20
49184;DHT22;35021;49.214;12.270;2023-11-21T08:18:29;22.80;38.40
49184;DHT22;35021;49.214;12.270;2023-11-21T08:20:59;22.70;38.50
49184;DHT22;35021;49.214;12.270;2023-11-21T08:23:26;22.60;38.60
49184;DHT22;35021;49.214;12.270;2023-11-21T08:25:53;22.60;38.80
49184;DHT22;35021;49.214;12.270;2023-11-21T08:28:20;22.50;39.00
49184;DHT22;35021;49.214;12.270;2023-11-21T08:30:53;22.50;39.00
49184;DHT22;35021;49.214;12.270;2023-11-21T08:33:21;22.50;39.00
49184;DHT22;35021;49.214;12.270;2023-11-21T08:35:48;22.50;39.00
49184;DHT22;35021;49.214;12.270;2023-11-21T08:38:15;22.50;39.00
49184;DHT22;35021;49.214;12.270;2023-11-21T08:40:42;22.60;39.10
49184;DHT22;35021;49.214;12.270;2023-11-21T08:43:10;22.60;39.00
49184;DHT22;35021;49.214;12.270;2023-11-21T08:45:39;22.70;38.90
49184;DHT22;35021;49.214;12.270;2023-11-21T08:48:06;22.70;38.80
49184;DHT22;35021;49.214;12.270;2023-11-21T08:50:35;22.70;38.80
49184;DHT22;35021;49.214;12.270;2023-11-21T08:53:02;22.80;38.80
49184;DHT22;35021;49.214;12.270;2023-11-21T08:55:31;22.80;38.70
49184;DHT22;35021;49.214;12.270;2023-11-21T08:57:59;22.80;38.60
49184;DHT22;35021;49.214;12.270;2023-11-21T09:00:29;22.80;38.70
49184;DHT22;35021;49.214;12.270;2023-11-21T09:02:57;22.80;38.70
49184;DHT22;35021;49.214;12.270;2023-11-21T09:05:25;22.80;38.80
49184;DHT22;35021;49.214;12.270;2023-11-21T09:07:54;22.70;38.80
49184;DHT22;35021;49.214;12.270;2023-11-21T09:10:21;22.70;38.90
49184;DHT22;35021;49.214;12.270;2023-11-21T09:12:49;22.60;39.10
49184;DHT22;35021;49.214;12.270;2023-11-21T09:15:17;22.60;39.10
49184;DHT22;35021;49.214;12.270;2023-11-21T09:17:46;22.50;39.20
49184;DHT22;35021;49.214;12.270;2023-11-21T09:20:15;22.50;39.20
49184;DHT22;35021;49.214;12.270;2023-11-21T09:22:43;22.50;39.10
49184;DHT22;35021;49.214;12.270;2023-11-21T09:25:12;22.60;39.10
49184;DHT22;35021;49.214;12.270;2023-11-21T09:27:40;22.60;39.10
49184;DHT22;35021;49.214;12.270;2023-11-21T09:30:08;22.60;39.00
49184;DHT22;35021;49.214;12.270;2023-11-21T09:32:39;22.70;39.00
49184;DHT22;35021;49.214;12.270;2023-11-21T09:35:08;22.70;38.80
49184;DHT22;35021;49.214;12.270;2023-11-21T09:37:35;22.70;38.70
49184;DHT22;35021;49.214;12.270;2023-11-21T09:40:03;22.80;38.60
49184;DHT22;35021;49.214;12.270;2023-11-21T09:42:36;22.80;38.50
49184;DHT22;35021;49.214;12.270;2023-11-21T09:45:15;22.80;39.30
49184;DHT22;35021;49.214;12.270;2023-11-21T09:47:44;22.70;38.60
49184;DHT22;35021;49.214;12.270;2023-11-21T09:50:12;22.70;38.70
49184;DHT22;35021;49.214;12.270;2023-11-21T09:55:50;22.50;38.90
49184;DHT22;35021;49.214;12.270;2023-11-21T09:58:18;22.40;39.00
49184;DHT22;35021;49.214;12.270;2023-11-21T10:00:46;22.40;39.20
49184;DHT22;35021;49.214;12.270;2023-11-21T10:03:14;22.40;39.30
49184;DHT22;35021;49.214;12.270;2023-11-21T10:05:42;22.30;39.20
49184;DHT22;35021;49.214;12.270;2023-11-21T10:08:10;22.40;39.30
49184;DHT22;35021;49.214;12.270;2023-11-21T10:10:38;22.40;39.20
49184;DHT22;35021;49.214;12.270;2023-11-21T10:13:08;22.40;39.10
49184;DHT22;35021;49.214;12.270;2023-11-21T10:15:38;22.40;39.00
49184;DHT22;35021;49.214;12.270;2023-11-21T10:18:06;22.50;39.00
49184;DHT22;35021;49.214;12.270;2023-11-21T10:20:34;22.60;39.00
49184;DHT22;35021;49.214;12.270;2023-11-21T10:23:01;22.60;38.80
49184;DHT22;35021;49.214;12.270;2023-11-21T10:25:34;22.70;38.80
49184;DHT22;35021;49.214;12.270;2023-11-21T10:28:03;22.70;38.60
49184;DHT22;35021;49.214;12.270;2023-11-21T10:30:34;22.80;38.50
49184;DHT22;35021;49.214;12.270;2023-11-21T10:33:04;22.90;38.50
49184;DHT22;35021;49.214;12.270;2023-11-21T10:38:15;23.00;38.40
49184;DHT22;35021;49.214;12.270;2023-11-21T10:40:42;23.00;38.30
49184;DHT22;35021;49.214;12.270;2023-11-21T10:43:11;23.10;38.30
49184;DHT22;35021;49.214;12.270;2023-11-21T10:45:40;23.10;38.20
49184;DHT22;35021;49.214;12.270;2023-11-21T10:48:08;23.20;38.10
49184;DHT22;35021;49.214;12.270;2023-11-21T10:50:36;23.20;38.00
49184;DHT22;35021;49.214;12.270;2023-11-21T10:53:03;23.30;37.90
49184;DHT22;35021;49.214;12.270;2023-11-21T10:55:32;23.40;37.90
49184;DHT22;35021;49.214;12.270;2023-11-21T10:58:00;23.40;37.80
49184;DHT22;35021;49.214;12.270;2023-11-21T11:00:29;23.40;37.70
49184;DHT22;35021;49.214;12.270;2023-11-21T11:02:56;23.50;37.60
49184;DHT22;35021;49.214;12.270;2023-11-21T11:05:23;23.50;37.50
49184;DHT22;35021;49.214;12.270;2023-11-21T11:07:51;23.60;37.50
49184;DHT22;35021;49.214;12.270;2023-11-21T11:10:27;23.60;37.40
49184;DHT22;35021;49.214;12.270;2023-11-21T11:12:57;23.70;37.40
49184;DHT22;35021;49.214;12.270;2023-11-21T11:15:25;23.70;38.00
49184;DHT22;35021;49.214;12.270;2023-11-21T11:17:53;23.80;37.30
49184;DHT22;35021;49.214;12.270;2023-11-21T11:20:30;23.80;37.20
49184;DHT22;35021;49.214;12.270;2023-11-21T11:28:51;23.90;37.10
49184;DHT22;35021;49.214;12.270;2023-11-21T11:31:25;23.90;37.00
49184;DHT22;35021;49.214;12.270;2023-11-21T11:33:59;24.00;37.00
49184;DHT22;35021;49.214;12.270;2023-11-21T11:36:34;24.00;37.00
49184;DHT22;35021;49.214;12.270;2023-11-21T11:39:03;24.00;36.90
49184;DHT22;35021;49.214;12.270;2023-11-21T11:41:32;24.00;36.90
49184;DHT22;35021;49.214;12.270;2023-11-21T11:44:02;24.10;37.00
49184;DHT22;35021;49.214;12.270;2023-11-21T11:46:47;24.10;36.90
49184;DHT22;35021;49.214;12.270;2023-11-21T11:49:24;24.00;36.90
49184;DHT22;35021;49.214;12.270;2023-11-21T11:54:42;24.00;37.00
49184;DHT22;35021;49.214;12.270;2023-11-21T11:57:10;23.90;36.90
49184;DHT22;35021;49.214;12.270;2023-11-21T12:02:26;23.90;37.10
49184;DHT22;35021;49.214;12.270;2023-11-21T12:04:55;23.80;37.10
49184;DHT22;35021;49.214;12.270;2023-11-21T12:07:23;23.80;37.00
49184;DHT22;35021;49.214;12.270;2023-11-21T12:09:50;23.80;37.00
49184;DHT22;35021;49.214;12.270;2023-11-21T12:12:17;23.80;36.90
49184;DHT22;35021;49.214;12.270;2023-11-21T12:14:46;23.90;36.90
49184;DHT22;35021;49.214;12.270;2023-11-21T12:17:13;23.90;36.80
49184;DHT22;35021;49.214;12.270;2023-11-21T12:19:40;23.90;36.80
49184;DHT22;35021;49.214;12.270;2023-11-21T12:22:07;23.90;36.70
49184;DHT22;35021;49.214;12.270;2023-11-21T12:24:35;23.90;36.70
49184;DHT22;35021;49.214;12.270;2023-11-21T12:27:02;23.90;36.80
49184;DHT22;35021;49.214;12.270;2023-11-21T12:29:29;23.90;36.80
49184;DHT22;35021;49.214;12.270;2023-11-21T12:31:57;23.80;36.80
49184;DHT22;35021;49.214;12.270;2023-11-21T12:34:24;23.80;36.80
49184;DHT22;35021;49.214;12.270;2023-11-21T12:36:51;23.80;36.80
49184;DHT22;35021;49.214;12.270;2023-11-21T12:39:22;23.80;36.90
49184;DHT22;35021;49.214;12.270;2023-11-21T12:41:49;23.80;36.90
49184;DHT22;35021;49.214;12.270;2023-11-21T12:44:16;23.70;36.90
49184;DHT22;35021;49.214;12.270;2023-11-21T12:46:43;23.70;37.00
49184;DHT22;35021;49.214;12.270;2023-11-21T12:49:12;23.70;37.10
49184;DHT22;35021;49.214;12.270;2023-11-21T12:51:45;23.60;37.00
49184;DHT22;35021;49.214;12.270;2023-11-21T12:54:12;23.60;37.10
49184;DHT22;35021;49.214;12.270;2023-11-21T12:56:39;23.60;37.10
49184;DHT22;35021;49.214;12.270;2023-11-21T12:59:06;23.60;37.10
49184;DHT22;35021;49.214;12.270;2023-11-21T13:01:34;23.70;37.10
49184;DHT22;35021;49.214;12.270;2023-11-21T13:04:01;23.70;37.00
49184;DHT22;35021;49.214;12.270;2023-11-21T13:06:29;23.80;37.00
49184;DHT22;35021;49.214;12.270;2023-11-21T13:09:01;23.80;36.90
49184;DHT22;35021;49.214;12.270;2023-11-21T13:11:28;23.80;36.70
49184;DHT22;35021;49.214;12.270;2023-11-21T13:13:58;23.90;36.80
49184;DHT22;35021;49.214;12.270;2023-11-21T13:16:28;23.90;36.80
49184;DHT22;35021;49.214;12.270;2023-11-21T13:18:55;23.90;36.80
49184;DHT22;35021;49.214;12.270;2023-11-21T13:21:22;23.80;36.90
49184;DHT22;35021;49.214;12.270;2023-11-21T13:23:49;23.70;37.10
49184;DHT22;35021;49.214;12.270;2023-11-21T13:26:19;23.70;37.30
49184;DHT22;35021;49.214;12.270;2023-11-21T13:28:48;23.60;37.30
49184;DHT22;35021;49.214;12.270;2023-11-21T13:31:15;23.50;37.40
49184;DHT22;35021;49.214;12.270;2023-11-21T13:33:48;23.50;37.60
49184;DHT22;35021;49.214;12.270;2023-11-21T13:36:22;23.40;37.70
49184;DHT22;35021;49.214;12.270;2023-11-21T13:38:50;23.30;37.70
49184;DHT22;35021;49.214;12.270;2023-11-21T13:41:17;23.30;37.90
49184;DHT22;35021;49.214;12.270;2023-11-21T13:43:45;23.20;38.00
49184;DHT22;35021;49.214;12.270;2023-11-21T13:46:17;23.10;38.10
49184;DHT22;35021;49.214;12.270;2023-11-21T13:48:49;23.10;38.20
49184;DHT22;35021;49.214;12.270;2023-11-21T13:51:23;23.10;38.30
49184;DHT22;35021;49.214;12.270;2023-11-21T13:54:03;23.10;38.40
49184;DHT22;35021;49.214;12.270;2023-11-21T13:56:32;23.20;38.40
49184;DHT22;35021;49.214;12.270;2023-11-21T13:58:59;23.20;38.30
49184;DHT22;35021;49.214;12.270;2023-11-21T14:01:35;23.20;38.40
49184;DHT22;35021;49.214;12.270;2023-11-21T14:04:21;23.30;38.30
49184;DHT22;35021;49.214;12.270;2023-11-21T14:06:58;23.40;38.30
49184;DHT22;35021;49.214;12.270;2023-11-21T14:09:28;23.40;38.20
49184;DHT22;35021;49.214;12.270;2023-11-21T14:12:10;23.50;38.10
49184;DHT22;35021;49.214;12.270;2023-11-21T14:14:39;23.50;38.00
49184;DHT22;35021;49.214;12.270;2023-11-21T14:17:06;23.50;37.90
49184;DHT22;35021;49.214;12.270;2023-11-21T14:19:34;23.50;37.80
49184;DHT22;35021;49.214;12.270;2023-11-21T14:22:03;23.50;37.80
49184;DHT22;35021;49.214;12.270;2023-11-21T14:24:31;23.50;37.80
49184;DHT22;35021;49.214;12.270;2023-11-21T14:26:59;23.50;37.80
49184;DHT22;35021;49.214;12.270;2023-11-21T14:29:26;23.50;37.80
49184;DHT22;35021;49.214;12.270;2023-11-21T14:31:54;23.50;37.90
49184;DHT22;35021;49.214;12.270;2023-11-21T14:34:24;23.50;37.90
49184;DHT22;35021;49.214;12.270;2023-11-21T14:36:51;23.50;38.00
49184;DHT22;35021;49.214;12.270;2023-11-21T14:39:18;23.40;38.00
49184;DHT22;35021;49.214;12.270;2023-11-21T14:41:51;23.40;38.10
49184;DHT22;35021;49.214;12.270;2023-11-21T14:44:19;23.40;38.20
49184;DHT22;35021;49.214;12.270;2023-11-21T14:46:47;23.30;38.20
49184;DHT22;35021;49.214;12.270;2023-11-21T14:49:17;23.30;38.30
49184;DHT22;35021;49.214;12.270;2023-11-21T14:51:48;23.30;38.30
49184;DHT22;35021;49.214;12.270;2023-11-21T14:54:24;23.30;38.30
49184;DHT22;35021;49.214;12.270;2023-11-21T14:57:07;23.40;38.30
49184;DHT22;35021;49.214;12.270;2023-11-21T14:59:43;23.40;38.20
49184;DHT22;35021;49.214;12.270;2023-11-21T15:02:10;23.50;38.00
49184;DHT22;35021;49.214;12.270;2023-11-21T15:04:48;23.60;38.00
49184;DHT22;35021;49.214;12.270;2023-11-21T15:07:19;23.70;38.00
49184;DHT22;35021;49.214;12.270;2023-11-21T15:09:46;23.70;37.80
49184;DHT22;35021;49.214;12.270;2023-11-21T15:12:13;23.70;37.80
49184;DHT22;35021;49.214;12.270;2023-11-21T15:17:09;23.80;37.80
49184;DHT22;35021;49.214;12.270;2023-11-21T15:19:37;23.80;37.80
49184;DHT22;35021;49.214;12.270;2023-11-21T15:22:04;23.80;37.80
49184;DHT22;35021;49.214;12.270;2023-11-21T15:24:33;23.80;37.70
49184;DHT22;35021;49.214;12.270;2023-11-21T15:27:00;23.80;37.70
49184;DHT22;35021;49.214;12.270;2023-11-21T15:29:30;23.70;37.60
49184;DHT22;35021;49.214;12.270;2023-11-21T15:31:57;23.70;37.70
49184;DHT22;35021;49.214;12.270;2023-11-21T15:34:24;23.60;37.80
49184;DHT22;35021;49.214;12.270;2023-11-21T15:36:54;23.60;37.90
49184;DHT22;35021;49.214;12.270;2023-11-21T15:39:22;23.50;37.80
49184;DHT22;35021;49.214;12.270;2023-11-21T15:41:52;23.50;37.90
49184;DHT22;35021;49.214;12.270;2023-11-21T15:44:19;23.50;37.90